createdAt,value
2022-12-31T00:00:34.922Z,2.47
2022-12-31T00:05:39.027Z,2.38
2022-12-31T00:10:44.385Z,2.36
2022-12-31T00:15:48.348Z,2.40
2022-12-31T00:20:52.320Z,2.68
2022-12-31T00:25:57.741Z,2.39
2022-12-31T00:31:09.540Z,2.02
2022-12-31T00:36:15.180Z,1.85
2022-12-31T00:41:21.926Z,1.82
2022-12-31T00:46:26.292Z,2.29
2022-12-31T00:51:30.737Z,2.50
2022-12-31T00:56:36.204Z,2.52
2022-12-31T01:01:41.642Z,2.75
2022-12-31T01:06:45.916Z,2.69
2022-12-31T01:11:53.041Z,2.48
2022-12-31T01:16:56.984Z,2.24
2022-12-31T01:22:01.122Z,2.18
2022-12-31T01:27:06.778Z,2.25
2022-12-31T01:32:10.672Z,2.21
2022-12-31T01:37:14.618Z,2.20
2022-12-31T01:42:19.988Z,2.42
2022-12-31T01:47:34.196Z,2.36
2022-12-31T01:52:41.301Z,2.05
2022-12-31T01:57:49.315Z,2.25
2022-12-31T02:02:53.875Z,2.50
2022-12-31T02:07:58.923Z,2.49
2022-12-31T02:13:04.791Z,2.33
2022-12-31T02:18:17.443Z,2.34
2022-12-31T02:23:53.730Z,2.55
2022-12-31T02:29:20.494Z,3.11
2022-12-31T02:34:32.666Z,3.28
2022-12-31T02:39:37.484Z,3.35
2022-12-31T02:44:43.194Z,3.13
2022-12-31T02:50:03.017Z,2.86
2022-12-31T02:55:13.503Z,2.98
2022-12-31T03:00:36.259Z,3.04
2022-12-31T03:05:43.555Z,3.13
2022-12-31T03:10:47.541Z,2.73
2022-12-31T03:15:51.781Z,2.87
2022-12-31T03:21:14.504Z,2.82
2022-12-31T03:26:18.546Z,2.86
2022-12-31T03:31:22.497Z,3.04
2022-12-31T03:36:27.945Z,3.05
2022-12-31T03:41:31.834Z,3.28
2022-12-31T03:46:35.792Z,3.33
2022-12-31T03:51:41.187Z,3.41
2022-12-31T03:56:45.126Z,3.38
2022-12-31T04:01:49.155Z,3.34
2022-12-31T04:06:54.583Z,3.06
2022-12-31T04:11:58.520Z,2.65
2022-12-31T04:17:02.447Z,2.27
2022-12-31T04:22:08.208Z,2.13
2022-12-31T04:27:12.607Z,1.98
2022-12-31T04:32:16.532Z,2.02
2022-12-31T04:37:22.069Z,2.06
2022-12-31T04:42:26.020Z,2.05
2022-12-31T04:47:29.994Z,2.42
2022-12-31T04:52:42.072Z,2.73
2022-12-31T04:57:46.746Z,2.32
2022-12-31T05:02:50.849Z,2.45
2022-12-31T05:07:56.267Z,2.53
2022-12-31T05:13:00.186Z,2.13
2022-12-31T05:18:04.326Z,1.90
2022-12-31T05:23:10.075Z,1.78
2022-12-31T05:28:14.811Z,2.12
2022-12-31T05:33:19.531Z,1.75
2022-12-31T05:38:24.832Z,1.82
2022-12-31T05:43:28.891Z,1.86
2022-12-31T05:48:33.199Z,1.98
2022-12-31T05:53:38.541Z,1.73
2022-12-31T05:58:43.123Z,1.82
2022-12-31T06:03:47.252Z,2.02
2022-12-31T06:08:53.009Z,2.05
2022-12-31T06:13:58.371Z,1.95
2022-12-31T06:19:02.861Z,2.14
2022-12-31T06:24:09.048Z,2.44
2022-12-31T06:29:13.057Z,2.29
2022-12-31T06:34:17.055Z,2.00
2022-12-31T06:39:22.436Z,2.07
2022-12-31T06:44:26.367Z,2.41
2022-12-31T06:49:30.417Z,2.87
2022-12-31T06:54:37.762Z,3.60
2022-12-31T06:59:41.703Z,4.21
2022-12-31T07:05:07.716Z,4.75
2022-12-31T07:10:29.203Z,5.14
2022-12-31T07:15:56.917Z,5.76
2022-12-31T07:21:01.610Z,6.26
2022-12-31T07:26:14.951Z,6.85
2022-12-31T07:31:32.861Z,7.42
2022-12-31T07:36:55.825Z,7.47
2022-12-31T07:42:13.032Z,8.14
2022-12-31T07:47:22.978Z,8.00
2022-12-31T07:52:27.804Z,8.14
2022-12-31T07:57:37.259Z,9.15
2022-12-31T08:03:09.548Z,9.39
2022-12-31T08:08:26.275Z,9.26
2022-12-31T08:13:32.767Z,9.79
2022-12-31T08:18:37.222Z,10.30
2022-12-31T08:23:51.793Z,10.08
2022-12-31T08:29:06.299Z,10.41
2022-12-31T08:34:20.975Z,10.09
2022-12-31T08:39:38.345Z,10.32
2022-12-31T08:44:47.676Z,10.26
2022-12-31T08:49:51.920Z,11.67
2022-12-31T08:54:56.397Z,11.82
2022-12-31T09:00:08.182Z,12.46
2022-12-31T09:05:20.735Z,11.97
2022-12-31T09:10:30.691Z,12.43
2022-12-31T09:15:42.562Z,12.74
2022-12-31T09:20:47.935Z,12.90
2022-12-31T09:26:01.982Z,12.32
2022-12-31T09:31:12.525Z,12.71
2022-12-31T09:36:23.593Z,12.57
2022-12-31T09:41:55.267Z,13.03
2022-12-31T09:47:26.702Z,13.64
2022-12-31T09:52:44.972Z,13.37
2022-12-31T09:58:02.308Z,13.70
2022-12-31T10:03:31.744Z,14.14
2022-12-31T10:08:58.064Z,14.23
2022-12-31T10:14:17.921Z,14.24
2022-12-31T10:19:52.345Z,14.70
2022-12-31T10:25:07.438Z,13.99
2022-12-31T10:30:17.714Z,14.25
2022-12-31T10:35:32.785Z,14.51
2022-12-31T10:41:00.802Z,14.76
2022-12-31T10:46:51.881Z,14.99
2022-12-31T10:52:32.831Z,15.10
2022-12-31T10:58:13.856Z,15.43
2022-12-31T11:04:17.406Z,15.16
2022-12-31T11:10:06.375Z,15.95
2022-12-31T11:15:38.212Z,16.16
2022-12-31T11:20:57.368Z,15.63
2022-12-31T11:26:13.500Z,15.54
2022-12-31T11:31:33.438Z,16.17
2022-12-31T11:36:45.754Z,15.84
2022-12-31T11:41:57.665Z,15.64
2022-12-31T11:47:17.930Z,15.59
2022-12-31T11:52:40.186Z,16.12
2022-12-31T11:57:50.195Z,15.64
2022-12-31T12:02:59.733Z,16.03
2022-12-31T12:08:04.204Z,15.89
2022-12-31T12:13:20.835Z,16.18
2022-12-31T12:18:31.780Z,15.67
2022-12-31T12:23:35.728Z,16.63
2022-12-31T12:28:45.440Z,15.59
2022-12-31T12:33:52.890Z,16.03
2022-12-31T12:39:02.146Z,15.85
2022-12-31T12:44:08.479Z,15.95
2022-12-31T12:49:23.930Z,15.71
2022-12-31T12:54:42.304Z,15.81
2022-12-31T13:00:08.016Z,15.68
2022-12-31T13:05:27.917Z,16.37
2022-12-31T13:10:52.506Z,16.18
2022-12-31T13:16:05.583Z,15.79
2022-12-31T13:21:23.827Z,16.42
2022-12-31T13:26:32.985Z,16.09
2022-12-31T13:31:40.462Z,15.91
2022-12-31T13:36:49.817Z,16.20
2022-12-31T13:42:00.123Z,16.03
2022-12-31T13:47:13.620Z,15.54
2022-12-31T13:52:28.988Z,15.08
2022-12-31T13:57:43.481Z,14.41
2022-12-31T14:02:58.227Z,13.64
2022-12-31T14:08:06.547Z,13.89
2022-12-31T14:13:34.356Z,12.86
2022-12-31T14:18:44.953Z,12.55
2022-12-31T14:23:57.548Z,11.67
2022-12-31T14:29:20.031Z,11.38
2022-12-31T14:34:32.699Z,11.04
2022-12-31T14:39:49.680Z,10.43
2022-12-31T14:45:05.831Z,9.68
2022-12-31T14:50:13.809Z,9.43
2022-12-31T14:55:27.032Z,9.12
2022-12-31T15:00:34.170Z,8.97
2022-12-31T15:05:39.420Z,8.78
2022-12-31T15:10:54.790Z,8.29
2022-12-31T15:16:14.298Z,7.94
2022-12-31T15:21:42.669Z,7.88
2022-12-31T15:26:53.345Z,7.94
2022-12-31T15:32:00.108Z,7.63
2022-12-31T15:37:06.246Z,7.26
2022-12-31T15:42:49.716Z,7.05
2022-12-31T15:47:59.054Z,6.94
